Time;durP1;ratioP1;P1;durP2;ratioP2;P2;SDS_P1;SDS_P2;PMS_P1;PMS_P2;Temp;Humidity;BMP_temperature;BMP_pressure;BME280_temperature;BME280_humidity;BME280_pressure;Samples;Min_cycle;Max_cycle;Signal;HPM_P1;HPM_P2
2022/05/25 00:00:59;;;;;;;10.10;3.60;;;;;;;9.56;88.30;101393.89;1919043;75;21043;-55
2022/05/25 00:03:30;;;;;;;8.75;4.10;;;;;;;9.56;88.27;101391.72;1918241;75;21129;-54
2022/05/25 00:06:00;;;;;;;7.45;4.17;;;;;;;9.54;88.19;101397.01;1919051;75;21032;-54
2022/05/25 00:08:29;;;;;;;7.37;4.10;;;;;;;9.51;88.09;101389.64;1919142;75;21099;-55
2022/05/25 00:10:58;;;;;;;8.30;4.75;;;;;;;9.48;88.08;101395.85;1919090;75;21102;-53
2022/05/25 00:13:27;;;;;;;10.75;4.97;;;;;;;9.45;88.03;101397.23;1919083;75;21539;-55
2022/05/25 00:15:56;;;;;;;10.50;3.55;;;;;;;9.42;88.02;101397.30;1918949;75;21075;-55
2022/05/25 00:18:25;;;;;;;8.13;3.98;;;;;;;9.43;87.98;101395.09;1919043;75;21110;-56
2022/05/25 00:20:53;;;;;;;11.48;2.92;;;;;;;9.42;87.93;101397.30;1919123;75;21119;-56
2022/05/25 00:23:22;;;;;;;6.17;3.37;;;;;;;9.41;87.84;101402.16;1919027;75;21110;-55
2022/05/25 00:25:51;;;;;;;8.83;3.37;;;;;;;9.42;87.85;101403.86;1919089;75;21098;-55
2022/05/25 00:28:19;;;;;;;8.93;3.72;;;;;;;9.43;88.05;101403.83;1919060;75;21056;-56
2022/05/25 00:30:49;;;;;;;5.45;3.67;;;;;;;9.46;88.11;101401.57;1919041;75;21028;-55
2022/05/25 00:33:21;;;;;;;6.08;2.80;;;;;;;9.45;88.06;101398.55;1919112;75;21036;-56
2022/05/25 00:35:49;;;;;;;12.50;3.20;;;;;;;9.46;88.09;101397.62;1919033;75;21044;-56
2022/05/25 00:38:18;;;;;;;5.20;3.17;;;;;;;9.47;88.11;101394.11;1919037;75;21056;-55
2022/05/25 00:40:46;;;;;;;12.15;2.58;;;;;;;9.46;88.04;101396.31;1919070;75;21145;-55
2022/05/25 00:43:15;;;;;;;6.05;3.00;;;;;;;9.44;88.01;101397.69;1919098;75;21089;-56
2022/05/25 00:45:47;;;;;;;8.03;2.37;;;;;;;9.44;87.94;101400.75;1919198;75;21142;-54
2022/05/25 00:48:18;;;;;;;3.42;2.12;;;;;;;9.42;87.89;101402.55;1919189;75;21043;-55
2022/05/25 00:51:22;;;;;;;5.40;3.05;;;;;;;9.40;88.01;101401.27;1918225;75;21047;-56
2022/05/25 00:53:23;;;;;;;10.10;3.02;;;;;;;9.38;87.85;101401.75;1918137;74;21040;-56
2022/05/25 00:55:52;;;;;;;4.55;3.15;;;;;;;9.37;87.76;101402.67;1919071;75;21447;-55
2022/05/25 00:58:21;;;;;;;7.83;3.60;;;;;;;9.36;87.75;101400.94;1919165;75;21486;-55
2022/05/25 01:00:50;;;;;;;9.60;3.50;;;;;;;9.35;87.70;101408.84;1880855;76;21003;-54
2022/05/25 01:03:19;;;;;;;3.30;2.42;;;;;;;9.30;87.61;101410.74;1927030;74;21447;-54
2022/05/25 01:06:03;;;;;;;7.45;3.90;;;;;;;9.28;87.65;101406.83;1927011;74;21043;-54
2022/05/25 01:09:06;;;;;;;7.70;3.30;;;;;;;9.25;87.67;101403.80;1927291;74;21039;-56
2022/05/25 01:11:55;;;;;;;10.82;4.65;;;;;;;9.24;87.56;101411.72;1926997;74;21030;-55
2022/05/25 01:14:49;;;;;;;8.83;4.10;;;;;;;9.22;87.50;101415.72;1926961;74;21098;-55
2022/05/25 01:17:43;;;;;;;25.50;5.03;;;;;;;9.22;87.48;101415.72;1927174;74;21576;-55
2022/05/25 01:20:21;;;;;;;4.92;3.02;;;;;;;9.19;87.34;101415.78;1925990;74;21059;-54
2022/05/25 01:23:04;;;;;;;7.10;3.75;;;;;;;9.18;87.37;101416.66;1926810;74;21047;-54
2022/05/25 01:25:41;;;;;;;8.05;5.05;;;;;;;9.18;87.55;101414.03;1927318;74;21039;-54
2022/05/25 01:28:16;;;;;;;8.65;4.60;;;;;;;9.18;87.61;101414.03;1927242;74;21502;-54
2022/05/25 01:30:47;;;;;;;7.78;3.65;;;;;;;9.20;87.65;101412.69;1924037;74;21039;-55
2022/05/25 01:33:18;;;;;;;13.78;3.83;;;;;;;9.20;87.69;101413.58;1927026;74;21480;-54
2022/05/25 01:36:05;;;;;;;5.90;3.35;;;;;;;9.21;87.68;101417.06;1925506;74;21078;-54
2022/05/25 01:38:58;;;;;;;11.30;3.00;;;;;;;9.22;87.76;101423.60;1925767;74;21482;-55
2022/05/25 01:41:35;;;;;;;11.33;4.75;;;;;;;9.24;87.79;101421.80;1918424;74;21098;-54
2022/05/25 01:44:09;;;;;;;7.75;3.85;;;;;;;9.30;88.13;101426.05;1920535;74;21059;-55
2022/05/25 01:46:53;;;;;;;8.65;3.90;;;;;;;9.36;88.25;101422.41;1927102;74;21043;-55
2022/05/25 01:49:22;;;;;;;;;;;;;;;9.41;88.30;101425.81;1927334;74;21149;-55
2022/05/25 01:51:57;;;;;;;11.73;3.98;;;;;;;9.46;88.37;101431.80;1927049;74;20142;-55
2022/05/25 01:54:29;;;;;;;8.85;3.65;;;;;;;9.49;88.31;101430.42;1927038;74;21033;-51
2022/05/25 01:56:59;;;;;;;11.33;4.58;;;;;;;9.52;88.39;101439.56;1925672;74;21095;-55
2022/05/25 01:59:28;;;;;;;7.28;4.15;;;;;;;9.56;88.47;101441.22;1927055;74;21043;-52
2022/05/25 02:04:51;;;;;;;7.58;3.00;;;;;;;9.61;88.61;101435.41;1926944;74;21533;-53
2022/05/25 02:07:41;;;;;;;6.25;3.83;;;;;;;9.68;88.68;101444.45;1927052;74;21036;-54
2022/05/25 02:10:29;;;;;;;10.85;4.03;;;;;;;9.72;88.65;101446.09;1924881;74;21584;-53
2022/05/25 02:13:00;;;;;;;7.50;4.22;;;;;;;9.77;88.69;101450.80;1926970;74;21121;-55
2022/05/25 02:15:38;;;;;;;7.20;3.30;;;;;;;9.82;88.71;101452.41;1927064;74;21028;-55
2022/05/25 02:18:30;;;;;;;7.30;2.90;;;;;;;9.85;88.67;101450.18;1927050;74;21533;-54
2022/05/25 02:21:17;;;;;;;5.30;3.72;;;;;;;9.90;88.60;101461.42;1929689;73;21548;-60
2022/05/25 02:23:56;;;;;;;6.95;3.15;;;;;;;9.94;88.51;101460.47;1892234;76;21070;-63
2022/05/25 02:26:30;;;;;;;4.15;2.95;;;;;;;9.98;88.36;101467.84;1906702;74;20999;-63
2022/05/25 02:29:08;;;;;;;5.05;3.35;;;;;;;9.99;88.29;101466.46;1923217;74;21039;-63
2022/05/25 02:31:39;;;;;;;5.85;2.30;;;;;;;10.00;88.16;101469.52;1923036;74;21549;-62
2022/05/25 02:34:11;;;;;;;5.67;2.45;;;;;;;9.98;88.09;101468.70;1922958;74;21038;-63
2022/05/25 02:36:41;;;;;;;5.12;3.02;;;;;;;9.95;88.02;101466.12;1923212;74;21039;-63
2022/05/25 02:39:12;;;;;;;7.47;2.90;;;;;;;9.94;88.03;101475.38;1926085;74;21039;-62
2022/05/25 02:41:49;;;;;;;4.00;2.02;;;;;;;9.92;87.98;101466.20;1927030;74;21008;-62
2022/05/25 02:44:19;;;;;;;23.77;3.15;;;;;;;9.91;87.96;101472.38;1927083;74;21122;-63
2022/05/25 02:46:48;;;;;;;3.15;2.77;;;;;;;9.90;87.89;101482.47;1927011;74;21137;-62
2022/05/25 02:49:18;;;;;;;4.78;2.67;;;;;;;9.89;87.85;101479.45;1926933;74;21141;-62
2022/05/25 02:51:47;;;;;;;6.22;2.30;;;;;;;9.89;87.83;101485.17;1927261;74;21574;-62
2022/05/25 02:54:17;;;;;;;7.87;2.85;;;;;;;9.90;87.78;101488.19;1927195;74;20999;-63
2022/05/25 02:56:46;;;;;;;3.52;2.10;;;;;;;9.89;87.75;101489.97;1926950;74;21048;-62
2022/05/25 02:59:15;;;;;;;3.60;2.15;;;;;;;9.87;87.76;101491.77;1926992;74;21129;-61
2022/05/25 03:01:43;;;;;;;5.72;2.20;;;;;;;9.86;87.73;101492.20;1927270;74;21075;-61
2022/05/25 03:04:12;;;;;;;6.95;2.60;;;;;;;9.87;87.68;101497.03;1927025;74;21121;-61
2022/05/25 03:06:40;;;;;;;5.87;2.42;;;;;;;9.87;87.65;101499.66;1926938;74;21486;-61
2022/05/25 03:09:09;;;;;;;7.92;3.02;;;;;;;9.88;87.58;101505.32;1926895;74;21121;-62
2022/05/25 03:11:38;;;;;;;4.12;2.52;;;;;;;9.87;87.53;101503.61;1926990;73;21143;-62
2022/05/25 03:14:07;;;;;;;6.37;2.40;;;;;;;9.87;87.44;101504.92;1927037;74;21007;-62
2022/05/25 03:16:35;;;;;;;13.55;3.08;;;;;;;9.89;87.40;101506.21;1926964;74;21050;-63
2022/05/25 03:19:04;;;;;;;14.23;3.60;;;;;;;10.02;87.59;101512.44;1927106;74;21120;-63
2022/05/25 03:21:33;;;;;;;10.32;2.40;;;;;;;10.28;88.43;101506.98;1927002;74;21006;-61
2022/05/25 03:24:02;;;;;;;6.70;2.72;;;;;;;10.58;89.43;101507.11;1926995;74;21521;-60
2022/05/25 03:26:31;;;;;;;6.72;2.10;;;;;;;10.88;90.15;101510.70;1927064;74;21042;-60
2022/05/25 03:29:00;;;;;;;8.80;2.30;;;;;;;11.15;90.64;101508.16;1927044;74;21528;-60
2022/05/25 03:31:29;;;;;;;13.93;2.12;;;;;;;11.37;90.67;101512.34;1926997;74;21136;-60
2022/05/25 03:33:57;;;;;;;8.05;2.62;;;;;;;11.57;90.54;101513.06;1926896;74;21042;-61
2022/05/25 03:36:26;;;;;;;5.85;1.75;;;;;;;11.82;90.64;101513.14;1927056;74;21026;-60
2022/05/25 03:38:55;;;;;;;4.40;2.22;;;;;;;12.09;90.77;101515.84;1927117;74;21062;-59
2022/05/25 03:41:23;;;;;;;5.47;2.25;;;;;;;12.29;90.54;101522.64;1927009;74;21030;-59
2022/05/25 03:43:52;;;;;;;3.40;1.57;;;;;;;12.48;90.21;101520.69;1927053;74;21030;-60
2022/05/25 03:46:21;;;;;;;6.30;2.17;;;;;;;12.63;89.58;101521.47;1927024;74;21026;-60
2022/05/25 03:48:49;;;;;;;5.95;1.90;;;;;;;12.77;89.03;101527.60;1926949;74;21085;-60
2022/05/25 03:51:18;;;;;;;5.80;1.62;;;;;;;12.89;87.99;101524.53;1926970;74;21094;-60
2022/05/25 03:53:49;;;;;;;3.77;1.82;;;;;;;12.98;86.26;101529.91;1927015;74;21058;-59
2022/05/25 03:56:17;;;;;;;7.80;1.50;;;;;;;13.07;84.65;101522.97;1927201;74;21082;-59
2022/05/25 03:58:46;;;;;;;5.00;1.60;;;;;;;13.21;83.71;101522.47;1927032;74;21038;-60
2022/05/25 04:01:15;;;;;;;5.72;1.35;;;;;;;13.32;82.28;101524.75;1926887;73;21177;-60
2022/05/25 04:03:44;;;;;;;3.27;1.62;;;;;;;13.48;81.37;101519.27;1926946;74;21116;-59
2022/05/25 04:06:12;;;;;;;4.00;2.08;;;;;;;13.64;80.35;101522.63;1926954;74;21124;-59
2022/05/25 04:08:41;;;;;;;2.55;2.10;;;;;;;13.85;80.12;101519.14;1926960;74;21042;-65
2022/05/25 04:11:11;;;;;;;5.33;1.80;;;;;;;14.07;79.07;101527.08;1926903;74;21054;-63
2022/05/25 04:13:39;;;;;;;5.05;1.32;;;;;;;14.28;78.44;101521.33;1926970;74;21031;-59
2022/05/25 04:16:08;;;;;;;8.18;1.87;;;;;;;14.55;77.97;101523.75;1926990;74;21058;-59
2022/05/25 04:18:37;;;;;;;3.30;1.32;;;;;;;14.87;77.40;101528.13;1926955;74;21181;-59
2022/05/25 04:21:06;;;;;;;7.92;2.15;;;;;;;15.11;76.48;101523.98;1927230;74;21039;-59
2022/05/25 04:23:35;;;;;;;5.17;1.52;;;;;;;15.30;75.37;101526.17;1926907;74;21035;-59
2022/05/25 04:26:04;;;;;;;5.55;1.90;;;;;;;15.50;74.85;101525.23;1926753;74;21112;-60
2022/05/25 04:28:33;;;;;;;3.17;1.42;;;;;;;15.77;74.53;101528.41;1927006;74;21039;-59
2022/05/25 04:31:02;;;;;;;5.60;1.65;;;;;;;15.86;72.73;101526.23;1927066;74;21015;-59
2022/05/25 04:33:31;;;;;;;6.62;1.77;;;;;;;16.01;72.25;101522.84;1927114;74;21116;-59
2022/05/25 04:36:00;;;;;;;5.42;1.70;;;;;;;16.19;72.33;101529.90;1927021;74;21481;-59
2022/05/25 04:38:29;;;;;;;3.55;1.62;;;;;;;16.42;71.59;101537.17;1927188;74;21090;-60
2022/05/25 04:40:57;;;;;;;3.40;1.20;;;;;;;16.59;71.03;101531.83;1927063;74;21116;-59
2022/05/25 04:43:26;;;;;;;3.87;1.60;;;;;;;16.68;69.76;101538.48;1927092;74;21044;-59
2022/05/25 04:45:59;;;;;;;6.67;1.40;;;;;;;16.78;70.19;101546.83;1927080;74;21512;-59
2022/05/25 04:48:27;;;;;;;2.42;1.30;;;;;;;17.09;70.58;101547.91;1927060;74;21042;-59
2022/05/25 04:50:57;;;;;;;2.47;1.65;;;;;;;17.18;68.78;101530.12;1927089;74;21454;-59
2022/05/25 04:53:26;;;;;;;4.35;1.52;;;;;;;17.33;68.89;101547.91;1927008;74;21576;-59
2022/05/25 04:58:44;;;;;;;1.65;1.40;;;;;;;17.60;68.14;101549.16;1927087;74;21105;-59
2022/05/25 05:01:16;;;;;;;4.05;1.42;;;;;;;18.02;67.83;101547.22;1927527;74;21606;-59
2022/05/25 05:03:45;;;;;;;1.95;1.27;;;;;;;18.06;65.52;101551.91;1930146;74;21003;-59
2022/05/25 05:06:13;;;;;;;3.62;1.15;;;;;;;18.27;66.52;101549.78;1930418;74;21425;-59
2022/05/25 05:08:42;;;;;;;3.65;0.93;;;;;;;18.62;66.77;101550.35;1930331;74;21011;-59
2022/05/25 05:11:21;;;;;;;2.40;1.50;;;;;;;18.91;65.71;101549.11;1930281;74;21132;-58
2022/05/25 05:13:49;;;;;;;2.10;1.05;;;;;;;19.15;64.66;101550.73;1850405;77;21102;-59
2022/05/25 05:16:18;;;;;;;2.65;1.32;;;;;;;19.35;61.93;101541.93;1920645;75;21011;-59
2022/05/25 05:18:48;;;;;;;4.12;1.30;;;;;;;19.25;61.06;101538.50;1920745;75;21035;-58
2022/05/25 05:21:22;;;;;;;2.15;1.30;;;;;;;19.39;61.06;101544.33;1920671;74;21112;-58
2022/05/25 05:23:51;;;;;;;2.65;1.20;;;;;;;19.58;59.99;101539.98;1920660;75;21067;-59
2022/05/25 05:26:20;;;;;;;2.27;1.00;;;;;;;19.56;59.23;101546.40;1920671;75;21070;-59
2022/05/25 05:28:53;;;;;;;3.52;1.40;;;;;;;19.42;57.53;101545.47;1920747;74;21014;-60
2022/05/25 05:31:18;;;;;;;2.60;1.32;;;;;;;19.36;56.82;101550.34;1920168;75;21293;-60
2022/05/25 05:33:47;;;;;;;2.37;1.35;;;;;;;19.43;56.74;101544.50;1920750;75;21587;-61
2022/05/25 05:36:25;;;;;;;1.30;1.05;;;;;;;19.63;57.35;101553.91;1920635;75;21035;-60
2022/05/25 05:38:56;;;;;;;2.40;1.00;;;;;;;19.74;56.65;101547.06;1919384;75;21116;-58
2022/05/25 05:41:28;;;;;;;2.33;1.30;;;;;;;19.88;57.00;101561.70;1920496;75;21211;-58
2022/05/25 05:43:57;;;;;;;2.67;1.85;;;;;;;19.99;56.32;101551.19;1920767;75;21043;-58
2022/05/25 05:46:27;;;;;;;1.67;1.20;;;;;;;20.30;56.05;101558.48;1920607;75;21038;-58
2022/05/25 05:48:56;;;;;;;4.53;1.35;;;;;;;20.51;55.78;101566.02;1920751;75;21023;-60
2022/05/25 05:51:25;;;;;;;1.85;1.05;;;;;;;20.79;55.74;101567.22;1920762;75;21043;-60
2022/05/25 05:53:53;;;;;;;2.47;1.20;;;;;;;21.05;55.10;101573.92;1920541;75;21108;-61
2022/05/25 05:56:22;;;;;;;4.72;1.15;;;;;;;21.15;54.76;101569.61;1920636;75;21108;-58
2022/05/25 05:58:51;;;;;;;3.12;1.30;;;;;;;21.40;53.77;101569.22;1920658;75;21011;-58
2022/05/25 06:01:20;;;;;;;2.72;1.65;;;;;;;21.61;54.52;101572.69;1920650;75;21156;-59
2022/05/25 06:03:48;;;;;;;2.30;1.00;;;;;;;21.77;53.52;101576.81;1909091;75;21083;-59
2022/05/25 06:06:17;;;;;;;4.10;1.40;;;;;;;21.87;53.02;101570.28;1908328;75;21134;-59
2022/05/25 06:08:50;;;;;;;4.15;1.47;;;;;;;21.80;52.18;101573.08;1908374;75;21035;-59
2022/05/25 06:11:17;;;;;;;2.85;1.60;;;;;;;21.94;51.69;101569.36;1907343;75;21099;-59
2022/05/25 06:13:48;;;;;;;3.47;1.40;;;;;;;21.93;51.88;101579.70;1908251;75;21015;-59
2022/05/25 06:36:12;;;;;;;4.12;1.60;;;;;;;22.03;48.42;101582.08;1908259;75;21150;-60
2022/05/25 06:38:41;;;;;;;2.65;1.32;;;;;;;21.86;47.52;101599.42;1908255;75;21530;-60
2022/05/25 06:41:10;;;;;;;3.37;1.47;;;;;;;21.67;48.13;101590.53;1908193;75;21090;-60
2022/05/25 06:43:38;;;;;;;4.83;2.00;;;;;;;21.70;47.16;101599.67;1908161;75;21144;-62
2022/05/25 06:46:09;;;;;;;5.95;1.90;;;;;;;21.69;48.23;101593.08;1908176;75;21112;-60
2022/05/25 06:48:38;;;;;;;6.85;1.70;;;;;;;21.92;47.85;101597.62;1908370;75;21027;-60
2022/05/25 06:51:14;;;;;;;3.00;1.50;;;;;;;21.97;47.41;101596.80;1908319;75;21031;-60
2022/05/25 06:53:44;;;;;;;3.55;1.35;;;;;;;22.07;47.40;101588.92;1908193;75;21031;-58
2022/05/25 06:56:13;;;;;;;3.27;1.95;;;;;;;21.97;47.30;101602.16;1908194;75;21474;-59
2022/05/25 06:58:43;;;;;;;4.80;1.60;;;;;;;22.16;47.63;101600.80;1908245;75;21047;-59
2022/05/25 07:01:11;;;;;;;3.12;1.65;;;;;;;22.32;46.90;101593.35;1908332;75;21108;-64
2022/05/25 07:03:40;;;;;;;1.92;1.40;;;;;;;22.45;46.36;101587.06;1896120;74;21063;-64
2022/05/25 07:06:11;;;;;;;4.03;1.25;;;;;;;22.44;46.38;101593.39;1853530;77;21164;-60
2022/05/25 07:08:40;;;;;;;4.83;1.62;;;;;;;22.43;46.58;101598.38;1886634;76;21120;-61
2022/05/25 07:11:11;;;;;;;5.22;1.42;;;;;;;22.47;45.59;101598.53;1893170;76;21078;-60
2022/05/25 07:13:40;;;;;;;1.22;1.10;;;;;;;22.42;45.85;101603.39;1886338;76;21125;-58
2022/05/25 07:16:13;;;;;;;2.40;1.22;;;;;;;22.34;45.86;101606.66;1886671;76;21474;-60
2022/05/25 07:18:42;;;;;;;2.33;1.50;;;;;;;22.38;46.74;101601.42;1886916;76;21085;-60
2022/05/25 07:21:20;;;;;;;2.83;1.00;;;;;;;22.72;45.98;101590.78;1886589;76;21548;-61
2022/05/25 07:23:51;;;;;;;2.58;1.50;;;;;;;22.89;45.34;101613.17;1886681;76;21018;-61
2022/05/25 07:26:21;;;;;;;3.12;1.60;;;;;;;23.16;44.63;101603.11;1886233;74;21035;-61
2022/05/25 07:28:54;;;;;;;2.55;1.00;;;;;;;23.09;44.25;101613.00;1886622;76;21026;-57
2022/05/25 07:31:37;;;;;;;2.40;1.40;;;;;;;23.05;44.12;101618.22;1886750;76;21116;-59
2022/05/25 07:34:09;;;;;;;4.45;1.60;;;;;;;23.18;44.55;101618.61;1886582;76;21047;-59
2022/05/25 07:36:40;;;;;;;1.92;1.02;;;;;;;23.27;44.34;101616.55;1886679;76;21091;-59
2022/05/25 07:39:13;;;;;;;1.98;1.45;;;;;;;23.61;44.13;101629.97;1886650;76;21042;-58
2022/05/25 07:41:45;;;;;;;2.35;1.30;;;;;;;23.65;43.51;101624.73;1887082;76;21034;-58
2022/05/25 07:44:16;;;;;;;6.67;1.50;;;;;;;23.76;42.86;101625.22;1886546;76;21034;-59
2022/05/25 07:46:45;;;;;;;1.57;1.30;;;;;;;23.78;42.69;101625.95;1886660;76;21495;-58
2022/05/25 07:49:14;;;;;;;1.30;1.20;;;;;;;23.81;42.43;101631.97;1886663;76;21054;-58
2022/05/25 07:51:43;;;;;;;3.83;1.72;;;;;;;24.00;42.70;101629.12;1886684;76;21062;-59
2022/05/25 07:54:12;;;;;;;3.05;1.60;;;;;;;24.18;42.59;101634.33;1886650;76;21493;-59
2022/05/25 07:56:40;;;;;;;6.83;1.50;;;;;;;24.26;40.73;101635.03;1886599;76;21082;-58
2022/05/25 07:59:12;;;;;;;1.98;1.37;;;;;;;24.02;40.23;101625.80;1886656;76;21034;-59
2022/05/25 08:07:26;;;;;;;4.83;1.52;;;;;;;23.75;41.96;101628.38;1886067;76;21082;-55
2022/05/25 08:09:58;;;;;;;1.57;1.15;;;;;;;23.73;41.37;101626.80;1886237;76;21055;-56
2022/05/25 08:12:27;;;;;;;1.90;1.10;;;;;;;24.15;41.66;101625.16;1886063;76;21078;-56
2022/05/25 08:14:56;;;;;;;3.00;1.35;;;;;;;24.71;40.58;101627.28;1886098;76;21485;-56
2022/05/25 08:17:24;;;;;;;1.98;1.20;;;;;;;24.79;39.51;101629.69;1886226;76;21066;-58
2022/05/25 08:19:53;;;;;;;3.98;1.32;;;;;;;24.81;38.82;101632.25;1886099;76;21124;-56
2022/05/25 08:22:22;;;;;;;4.85;1.52;;;;;;;25.01;39.33;101636.78;1886138;76;21058;-56
2022/05/25 08:24:51;;;;;;;4.05;1.35;;;;;;;24.98;39.30;101631.64;1886091;76;21576;-56
2022/05/25 08:27:20;;;;;;;3.77;1.30;;;;;;;24.59;39.94;101627.34;1886091;76;21023;-56
2022/05/25 08:29:49;;;;;;;2.92;1.60;;;;;;;23.75;40.26;101631.06;1886145;76;21050;-56
2022/05/25 08:32:17;;;;;;;4.25;1.50;;;;;;;23.39;40.46;101636.23;1886251;76;21199;-56
2022/05/25 08:34:46;;;;;;;5.12;1.30;;;;;;;23.25;41.33;101648.05;1886118;76;21062;-63
2022/05/25 08:37:15;;;;;;;1.75;1.12;;;;;;;23.05;41.04;101641.55;1886020;76;21039;-63
2022/05/25 08:39:44;;;;;;;4.58;1.27;;;;;;;22.92;41.06;101636.23;1886179;76;21090;-51
2022/05/25 08:42:15;;;;;;;2.80;1.40;;;;;;;23.23;41.05;101644.64;1886132;76;21043;-50
2022/05/25 08:44:46;;;;;;;2.67;1.30;;;;;;;23.80;40.06;101631.59;1885559;76;21149;-60
2022/05/25 08:47:16;;;;;;;2.45;1.35;;;;;;;24.46;39.27;101637.41;1886133;76;21522;-59
2022/05/25 08:49:46;;;;;;;4.12;1.20;;;;;;;24.61;37.71;101634.80;1886091;76;21133;-57
2022/05/25 08:52:33;;;;;;;5.67;1.75;;;;;;;23.65;38.32;101644.90;1886233;76;21023;-57
2022/05/25 08:55:08;;;;;;;2.50;1.30;;;;;;;22.89;39.63;101640.03;1886017;76;21498;-57
2022/05/25 08:57:52;;;;;;;3.47;1.20;;;;;;;22.44;40.96;101639.86;1886205;76;21120;-57
2022/05/25 09:00:23;;;;;;;5.70;1.37;;;;;;;22.17;41.61;101646.78;1886235;76;21074;-55
2022/05/25 09:03:14;;;;;;;1.40;1.20;;;;;;;22.00;41.10;101629.72;1885914;76;21095;-57
2022/05/25 09:05:46;;;;;;;3.52;2.00;;;;;;;21.82;42.20;101646.19;1881502;76;21654;-57
2022/05/25 09:08:26;;;;;;;6.12;1.72;;;;;;;21.62;43.16;101644.09;1880581;76;21074;-57
2022/05/25 09:11:01;;;;;;;4.33;1.77;;;;;;;21.39;43.97;101650.55;1880351;76;21156;-57
2022/05/25 09:13:35;;;;;;;3.83;1.42;;;;;;;21.19;45.08;101652.81;1880498;76;21046;-57
2022/05/25 09:16:18;;;;;;;3.47;1.42;;;;;;;20.90;45.98;101666.02;1878899;76;21059;-57
2022/05/25 09:19:08;;;;;;;11.63;1.72;;;;;;;20.70;46.96;101646.80;1880816;76;21032;-57
2022/05/25 09:21:43;;;;;;;2.35;1.32;;;;;;;20.70;46.38;101644.13;1880659;76;21067;-57
2022/05/25 09:24:14;;;;;;;3.05;1.70;;;;;;;20.80;46.24;101656.39;1879998;76;21118;-57
2022/05/25 09:26:43;;;;;;;2.45;1.52;;;;;;;21.27;45.58;101659.46;1880511;76;21086;-57
2022/05/25 09:29:13;;;;;;;2.33;1.62;;;;;;;21.40;45.24;101657.14;1880577;76;21500;-57
2022/05/25 09:32:00;;;;;;;2.83;1.27;;;;;;;21.31;45.30;101651.09;1880701;76;21579;-57
2022/05/25 09:34:40;;;;;;;4.20;1.50;;;;;;;21.25;45.43;101673.41;1880577;76;21058;-57
2022/05/25 09:37:18;;;;;;;1.67;1.10;;;;;;;21.17;45.67;101672.16;1880514;76;21039;-57
2022/05/25 09:39:47;;;;;;;3.92;1.30;;;;;;;21.02;45.85;101665.16;1828781;76;21571;-57
2022/05/25 09:42:18;;;;;;;3.87;1.40;;;;;;;20.89;46.17;101672.31;1880543;76;21067;-57
2022/05/25 09:44:52;;;;;;;2.62;1.35;;;;;;;20.78;46.54;101675.22;1880609;76;21035;-57
2022/05/25 09:47:24;;;;;;;5.22;1.42;;;;;;;20.62;46.96;101681.25;1880399;76;21090;-57
2022/05/25 09:49:57;;;;;;;4.03;1.07;;;;;;;20.39;47.48;101696.09;1880794;76;21023;-55
2022/05/25 09:52:38;;;;;;;2.72;1.20;;;;;;;20.22;47.75;101702.55;1880713;76;21047;-56
2022/05/25 09:55:09;;;;;;;1.80;0.85;;;;;;;20.02;43.25;101702.00;1880459;76;21070;-55
2022/05/25 09:57:41;;;;;;;2.20;1.20;;;;;;;19.75;42.42;101687.70;1880474;76;21539;-57
2022/05/25 10:00:12;;;;;;;1.87;1.12;;;;;;;19.53;43.32;101686.36;1880471;76;21042;-57
2022/05/25 10:03:04;;;;;;;2.90;1.00;;;;;;;19.26;43.61;101672.40;1879666;76;21114;-56
2022/05/25 10:05:36;;;;;;;2.58;2.27;;;;;;;19.10;44.82;101686.28;1880521;76;21074;-56
2022/05/25 10:08:10;;;;;;;2.83;1.60;;;;;;;18.93;46.68;101695.30;1880458;76;21128;-57
2022/05/25 10:10:57;;;;;;;10.25;2.37;;;;;;;18.85;47.30;101698.43;1880472;76;21035;-55
2022/05/25 10:13:29;;;;;;;5.78;1.80;;;;;;;18.67;48.17;101686.98;1880538;76;21138;-55
2022/05/25 10:16:01;;;;;;;5.58;1.60;;;;;;;18.08;54.72;101688.59;1880593;76;21023;-56
2022/05/25 10:18:38;;;;;;;1.15;0.85;;;;;;;16.80;64.16;101689.89;1880563;76;21055;-57
2022/05/25 10:21:09;;;;;;;10.78;2.27;;;;;;;15.82;70.15;101701.66;1880589;76;21112;-56
2022/05/25 10:23:40;;;;;;;5.85;1.92;;;;;;;15.17;71.71;101698.77;1880549;76;21047;-56
2022/05/25 10:26:19;;;;;;;2.52;1.77;;;;;;;14.63;73.59;101695.25;1880608;76;21047;-56
2022/05/25 10:28:57;;;;;;;9.88;2.77;;;;;;;14.08;75.64;101713.30;1879813;76;21046;-56
2022/05/25 10:37:19;;;;;;;1.95;1.32;;;;;;;12.91;79.47;101710.36;1880449;76;21042;-57
2022/05/25 10:39:59;;;;;;;2.52;0.95;;;;;;;12.69;80.56;101703.59;1874521;76;21019;-55
2022/05/25 10:42:44;;;;;;;1.62;1.20;;;;;;;12.60;81.74;101714.90;1880656;76;21026;-56
2022/05/25 10:45:13;;;;;;;2.33;1.42;;;;;;;12.63;82.92;101724.91;1880209;76;21160;-55
2022/05/25 10:47:58;;;;;;;3.33;2.00;;;;;;;12.61;82.92;101732.03;1880784;76;21051;-57
2022/05/25 10:50:38;;;;;;;6.03;2.12;;;;;;;12.46;83.80;101732.05;1879114;76;21046;-56
2022/05/25 10:53:16;;;;;;;19.32;2.10;;;;;;;12.31;85.49;101739.99;1879271;76;21023;-55
2022/05/25 10:56:12;;;;;;;5.08;2.65;;;;;;;12.28;87.01;101733.51;1880586;76;21489;-56
2022/05/25 10:58:55;;;;;;;3.87;2.30;;;;;;;12.07;89.04;101713.02;1880553;76;21132;-55
2022/05/25 11:01:42;;;;;;;2.47;1.70;;;;;;;11.79;90.21;101698.81;1880789;76;21513;-56
2022/05/25 11:04:22;;;;;;;3.08;2.52;;;;;;;11.82;91.06;101700.48;1880559;76;21070;-56
2022/05/25 11:06:57;;;;;;;6.42;1.92;;;;;;;11.71;90.94;101703.89;1882517;76;21181;-56
2022/05/25 11:09:48;;;;;;;2.00;1.30;;;;;;;11.70;90.97;101694.27;1882492;76;21137;-56
2022/05/25 11:12:32;;;;;;;6.40;2.25;;;;;;;11.84;91.78;101707.05;1882738;76;21485;-55
2022/05/25 11:15:25;;;;;;;3.55;2.33;;;;;;;12.03;92.32;101711.39;1883398;76;21094;-56
2022/05/25 11:18:16;;;;;;;4.87;2.77;;;;;;;12.19;92.61;101716.62;1882748;76;21094;-56
2022/05/25 11:21:16;;;;;;;6.45;2.95;;;;;;;12.47;93.02;101725.02;1883331;76;21500;-56
2022/05/25 11:24:00;;;;;;;9.95;2.92;;;;;;;12.63;93.37;101726.23;1881105;76;21066;-56
2022/05/25 11:26:41;;;;;;;4.92;2.60;;;;;;;12.87;93.60;101731.21;1883454;76;21485;-57
2022/05/25 11:29:24;;;;;;;5.30;2.77;;;;;;;12.98;93.15;101729.51;1882154;76;21105;-55
2022/05/25 11:32:14;;;;;;;8.33;4.55;;;;;;;12.88;93.05;101728.10;1883435;76;21034;-56
2022/05/25 11:34:48;;;;;;;8.40;2.80;;;;;;;12.74;93.11;101731.17;1883285;76;21043;-56
2022/05/25 11:37:41;;;;;;;11.45;2.83;;;;;;;12.74;92.92;101739.99;1883302;76;21031;-56
2022/05/25 11:40:43;;;;;;;9.35;3.20;;;;;;;12.71;92.96;101733.94;1882538;76;21055;-56
2022/05/25 11:43:31;;;;;;;8.70;3.08;;;;;;;12.75;92.51;101730.28;1883470;76;21098;-56
2022/05/25 11:46:19;;;;;;;20.37;3.55;;;;;;;12.87;91.88;101723.72;1883224;76;21140;-58
2022/05/25 11:49:13;;;;;;;11.83;2.65;;;;;;;12.76;91.80;101724.06;1883335;76;21140;-56
2022/05/25 11:51:45;;;;;;;6.62;1.95;;;;;;;12.42;92.01;101719.86;1883236;76;21446;-55
2022/05/25 11:54:35;;;;;;;4.83;2.58;;;;;;;12.22;92.24;101713.86;1883432;76;21148;-55
2022/05/25 11:57:09;;;;;;;8.73;2.92;;;;;;;12.19;93.27;101715.73;1883354;76;21043;-55
2022/05/25 11:59:56;;;;;;;4.00;1.87;;;;;;;11.96;94.46;101708.91;1883330;76;21136;-56
2022/05/25 12:03:01;;;;;;;10.65;2.98;;;;;;;11.74;95.29;101696.75;1883246;76;21508;-56
2022/05/25 12:05:50;;;;;;;3.58;1.90;;;;;;;11.86;96.05;101689.39;1883347;76;21007;-56
2022/05/25 12:08:39;;;;;;;3.33;1.67;;;;;;;11.87;96.45;101709.14;1857734;77;21062;-56
2022/05/25 12:11:19;;;;;;;6.92;2.85;;;;;;;11.84;96.54;101703.98;1859151;77;21563;-58
2022/05/25 12:14:11;;;;;;;4.87;2.45;;;;;;;11.81;96.58;101703.20;1858318;77;21022;-56
2022/05/25 12:16:42;;;;;;;3.52;2.50;;;;;;;11.93;96.69;101706.38;1859248;77;21046;-56
2022/05/25 12:19:20;;;;;;;6.60;3.35;;;;;;;12.14;96.69;101698.73;1859219;77;21034;-55
2022/05/25 12:21:54;;;;;;;14.00;2.77;;;;;;;12.14;96.70;101727.77;1859209;77;21218;-56
2022/05/25 12:24:28;;;;;;;6.10;2.02;;;;;;;12.10;96.66;101719.54;1858080;76;21113;-56
2022/05/25 12:27:00;;;;;;;3.52;2.37;;;;;;;11.86;96.70;101716.67;1859336;77;21128;-55
2022/05/25 12:29:43;;;;;;;4.75;2.47;;;;;;;11.84;96.89;101728.16;1859264;77;21046;-55
2022/05/25 12:32:13;;;;;;;20.37;2.52;;;;;;;11.92;97.10;101715.19;1858051;77;21148;-56
2022/05/25 12:34:46;;;;;;;4.20;1.87;;;;;;;12.04;96.86;101734.22;1859255;77;21508;-55